Terminal Aerodrome Forecast
Issued by NWS Charleston, WV

Current Version | Previous Version | Text Only | Print | Product List | Glossary Off
Versions: 1 2 3 4 5 6 7 8 9 10 11 12 13 14 15 16 17 18 19 20 21 22

000
FTUS41 KRLX 231500 AAA
TAFHTS
TAF AMD
KHTS 231500Z 2315/2412 14008G18KT 5SM SHRA OVC040
     FM231900 17006G18KT 2SM SHRA SCT015 OVC040
     FM232000 20007G19KT P6SM SHRA OVC040
     FM240100 22008KT P6SM OVC025
     FM240800 23006KT P6SM SCT040=

USA.gov is the U.S. government's official web portal to all federal, state and local government web resources and services.